Portada
METAR-TAF:

METAR-TAF

Aeropuertos :

Estocolmo-Arlanda, Suecia

Aeropuerto de Estocolmo-Arlanda

latitud: 59-39N, longitud: 017-57E, altitud: 38 m

Observación

El informe se hizo hace 31 minutos, a las 03:50 UTC
Viento 9 kt del este-noreste
Temperatura 0°C
Humedad 100%
Presión 1016 hPa
Visibilidad 10 km o más
sin nubes por debajo de 1500 m y sin presencia de cumulonimbus.

METAR: ESSA 280350Z 06009KT CAVOK 00/M00 Q1016 R01L/19//95 R08/19//95 R01R/19//95 NOSIG

Hora: 06:21 (04:21 UTC)

Pronóstico

El informe se hizo hace 4 horas y 51 minutos, a las 23:30 UTC
Pronóstico válido del 28 a las 00 UTC al 28 a las 24 UTC
Viento 5 kt del este
Visibilidad 10 km o más
sin nubes por debajo de 1500 m y sin presencia de cumulonimbus.
Probabilidad 40%
del 28 a las 02 UTC al 28 a las 06 UTC
Visibilidad: 1200 m
niebla en bancos

TAF: ESSA 272330Z 2800/2824 08005KT CAVOK PROB40 2802/2806 1200 BCFG

Observaciones y pronósticos meteorológicos de más de 4000 aeropuertos (mensajes METAR y TAF).

Los puntos amarillos y rojos representan las estaciones disponibles.

Ponga el ratón en el punto deseado para ver el nombre de la estación.

Haga clic para ver las observaciones y los pronósticos meteorológicos.

Para cambiar el mapa : haga clic en los botones verdes con una cruz de color negro para hacer un zoom, en el botón verde con un guión para alejar o en las flechas verdes para mapas adyacentes.


METAR-TAF: